sensor_id;sensor_type;location;lat;lon;timestamp;temperature;humidity
42479;DHT22;28110;47.080;9.476;2024-02-21T00:01:39;5.20;99.90
42479;DHT22;28110;47.080;9.476;2024-02-21T00:04:04;5.10;99.90
42479;DHT22;28110;47.080;9.476;2024-02-21T00:06:31;5.20;99.90
42479;DHT22;28110;47.080;9.476;2024-02-21T00:08:56;5.20;99.90
42479;DHT22;28110;47.080;9.476;2024-02-21T00:11:22;5.20;99.90
42479;DHT22;28110;47.080;9.476;2024-02-21T00:13:47;5.20;99.90
42479;DHT22;28110;47.080;9.476;2024-02-21T00:16:13;5.20;99.90
42479;DHT22;28110;47.080;9.476;2024-02-21T00:18:41;5.20;99.90
42479;DHT22;28110;47.080;9.476;2024-02-21T00:21:06;5.20;99.90
42479;DHT22;28110;47.080;9.476;2024-02-21T00:23:32;5.20;99.90
42479;DHT22;28110;47.080;9.476;2024-02-21T00:25:57;5.30;99.90
42479;DHT22;28110;47.080;9.476;2024-02-21T00:28:23;5.30;99.90
42479;DHT22;28110;47.080;9.476;2024-02-21T00:30:48;5.30;99.90
42479;DHT22;28110;47.080;9.476;2024-02-21T00:33:16;5.30;99.90
42479;DHT22;28110;47.080;9.476;2024-02-21T00:35:41;5.30;99.90
42479;DHT22;28110;47.080;9.476;2024-02-21T00:38:07;5.30;99.90
42479;DHT22;28110;47.080;9.476;2024-02-21T00:40:33;5.30;99.90
42479;DHT22;28110;47.080;9.476;2024-02-21T00:42:59;5.30;99.90
42479;DHT22;28110;47.080;9.476;2024-02-21T00:45:24;5.30;99.90
42479;DHT22;28110;47.080;9.476;2024-02-21T00:47:50;5.30;99.90
42479;DHT22;28110;47.080;9.476;2024-02-21T00:50:15;5.40;99.90
42479;DHT22;28110;47.080;9.476;2024-02-21T00:52:41;5.30;99.90
42479;DHT22;28110;47.080;9.476;2024-02-21T00:55:07;5.40;99.90
42479;DHT22;28110;47.080;9.476;2024-02-21T00:57:32;5.40;99.90
42479;DHT22;28110;47.080;9.476;2024-02-21T00:59:58;5.40;99.90
42479;DHT22;28110;47.080;9.476;2024-02-21T01:02:23;5.40;99.90
42479;DHT22;28110;47.080;9.476;2024-02-21T01:04:49;5.40;99.90
42479;DHT22;28110;47.080;9.476;2024-02-21T01:07:14;5.40;99.90
42479;DHT22;28110;47.080;9.476;2024-02-21T01:09:40;5.30;99.90
42479;DHT22;28110;47.080;9.476;2024-02-21T01:12:06;5.30;99.90
42479;DHT22;28110;47.080;9.476;2024-02-21T01:14:31;5.20;99.90
42479;DHT22;28110;47.080;9.476;2024-02-21T01:16:57;5.20;99.90
42479;DHT22;28110;47.080;9.476;2024-02-21T01:19:22;5.20;99.90
42479;DHT22;28110;47.080;9.476;2024-02-21T01:21:48;5.30;99.90
42479;DHT22;28110;47.080;9.476;2024-02-21T01:24:14;5.30;99.90
42479;DHT22;28110;47.080;9.476;2024-02-21T01:26:40;5.30;99.90
42479;DHT22;28110;47.080;9.476;2024-02-21T01:29:05;5.30;99.90
42479;DHT22;28110;47.080;9.476;2024-02-21T01:31:31;5.40;99.90
42479;DHT22;28110;47.080;9.476;2024-02-21T01:33:56;5.40;99.90
42479;DHT22;28110;47.080;9.476;2024-02-21T01:36:23;5.40;99.90
42479;DHT22;28110;47.080;9.476;2024-02-21T01:38:48;5.40;99.90
42479;DHT22;28110;47.080;9.476;2024-02-21T01:41:14;5.40;99.90
42479;DHT22;28110;47.080;9.476;2024-02-21T01:43:40;5.40;99.90
42479;DHT22;28110;47.080;9.476;2024-02-21T01:46:05;5.30;99.90
42479;DHT22;28110;47.080;9.476;2024-02-21T01:48:31;5.30;99.90
42479;DHT22;28110;47.080;9.476;2024-02-21T01:50:56;5.30;99.90
42479;DHT22;28110;47.080;9.476;2024-02-21T01:53:35;5.40;99.90
42479;DHT22;28110;47.080;9.476;2024-02-21T01:56:03;5.40;99.90
42479;DHT22;28110;47.080;9.476;2024-02-21T01:58:30;5.40;99.90
42479;DHT22;28110;47.080;9.476;2024-02-21T02:00:57;5.30;99.90
42479;DHT22;28110;47.080;9.476;2024-02-21T02:03:23;5.20;99.90
42479;DHT22;28110;47.080;9.476;2024-02-21T02:05:50;5.20;99.90
42479;DHT22;28110;47.080;9.476;2024-02-21T02:08:17;5.20;99.90
42479;DHT22;28110;47.080;9.476;2024-02-21T02:10:43;5.20;99.90
42479;DHT22;28110;47.080;9.476;2024-02-21T02:13:10;5.20;99.90
42479;DHT22;28110;47.080;9.476;2024-02-21T02:15:42;5.20;99.90
42479;DHT22;28110;47.080;9.476;2024-02-21T02:18:09;5.10;99.90
42479;DHT22;28110;47.080;9.476;2024-02-21T02:20:35;5.20;99.90
42479;DHT22;28110;47.080;9.476;2024-02-21T02:23:08;5.20;99.90
42479;DHT22;28110;47.080;9.476;2024-02-21T02:25:38;5.20;99.90
42479;DHT22;28110;47.080;9.476;2024-02-21T02:28:06;5.20;99.90
42479;DHT22;28110;47.080;9.476;2024-02-21T02:30:35;5.10;99.90
42479;DHT22;28110;47.080;9.476;2024-02-21T02:33:05;5.10;99.90
42479;DHT22;28110;47.080;9.476;2024-02-21T02:35:31;5.00;99.90
42479;DHT22;28110;47.080;9.476;2024-02-21T02:37:56;5.00;99.90
42479;DHT22;28110;47.080;9.476;2024-02-21T02:40:22;5.00;99.90
42479;DHT22;28110;47.080;9.476;2024-02-21T02:42:48;5.00;99.90
42479;DHT22;28110;47.080;9.476;2024-02-21T02:45:15;5.00;99.90
42479;DHT22;28110;47.080;9.476;2024-02-21T02:47:41;4.90;99.90
42479;DHT22;28110;47.080;9.476;2024-02-21T02:50:07;4.90;99.90
42479;DHT22;28110;47.080;9.476;2024-02-21T02:52:33;4.80;99.90
42479;DHT22;28110;47.080;9.476;2024-02-21T02:54:59;4.80;99.90
42479;DHT22;28110;47.080;9.476;2024-02-21T02:57:24;4.80;99.90
42479;DHT22;28110;47.080;9.476;2024-02-21T02:59:50;4.90;99.90
42479;DHT22;28110;47.080;9.476;2024-02-21T03:02:17;4.90;99.90
42479;DHT22;28110;47.080;9.476;2024-02-21T03:04:43;4.90;99.90
42479;DHT22;28110;47.080;9.476;2024-02-21T03:07:09;5.00;99.90
42479;DHT22;28110;47.080;9.476;2024-02-21T03:09:34;5.00;99.90
42479;DHT22;28110;47.080;9.476;2024-02-21T03:12:00;5.00;99.90
42479;DHT22;28110;47.080;9.476;2024-02-21T03:14:31;5.00;99.90
42479;DHT22;28110;47.080;9.476;2024-02-21T03:16:58;5.00;99.90
42479;DHT22;28110;47.080;9.476;2024-02-21T03:19:23;5.10;99.90
42479;DHT22;28110;47.080;9.476;2024-02-21T03:21:49;5.10;99.90
42479;DHT22;28110;47.080;9.476;2024-02-21T03:24:18;5.00;99.90
42479;DHT22;28110;47.080;9.476;2024-02-21T03:26:44;5.00;99.90
42479;DHT22;28110;47.080;9.476;2024-02-21T03:29:11;5.10;99.90
42479;DHT22;28110;47.080;9.476;2024-02-21T03:31:37;5.00;99.90
42479;DHT22;28110;47.080;9.476;2024-02-21T03:34:02;5.00;99.90
42479;DHT22;28110;47.080;9.476;2024-02-21T03:36:28;5.00;99.90
42479;DHT22;28110;47.080;9.476;2024-02-21T03:38:57;5.00;99.90
42479;DHT22;28110;47.080;9.476;2024-02-21T03:41:22;4.90;99.90
42479;DHT22;28110;47.080;9.476;2024-02-21T03:43:48;4.90;99.90
42479;DHT22;28110;47.080;9.476;2024-02-21T03:46:14;5.00;99.90
42479;DHT22;28110;47.080;9.476;2024-02-21T03:48:39;5.00;99.90
42479;DHT22;28110;47.080;9.476;2024-02-21T03:51:05;5.00;99.90
42479;DHT22;28110;47.080;9.476;2024-02-21T03:53:30;5.10;99.90
42479;DHT22;28110;47.080;9.476;2024-02-21T03:55:56;5.10;99.90
42479;DHT22;28110;47.080;9.476;2024-02-21T03:58:25;5.10;99.90
42479;DHT22;28110;47.080;9.476;2024-02-21T04:00:50;5.10;99.90
42479;DHT22;28110;47.080;9.476;2024-02-21T04:03:17;5.10;99.90
42479;DHT22;28110;47.080;9.476;2024-02-21T04:05:42;5.10;99.90
42479;DHT22;28110;47.080;9.476;2024-02-21T04:08:08;5.20;99.90
42479;DHT22;28110;47.080;9.476;2024-02-21T04:10:34;5.20;99.90
42479;DHT22;28110;47.080;9.476;2024-02-21T04:12:59;5.20;99.90
42479;DHT22;28110;47.080;9.476;2024-02-21T04:15:25;5.20;99.90
42479;DHT22;28110;47.080;9.476;2024-02-21T04:17:50;5.20;99.90
42479;DHT22;28110;47.080;9.476;2024-02-21T04:20:16;5.20;99.90
42479;DHT22;28110;47.080;9.476;2024-02-21T04:22:45;5.10;99.90
42479;DHT22;28110;47.080;9.476;2024-02-21T04:25:11;5.10;99.90
42479;DHT22;28110;47.080;9.476;2024-02-21T04:27:38;5.20;99.90
42479;DHT22;28110;47.080;9.476;2024-02-21T04:30:04;5.20;99.90
42479;DHT22;28110;47.080;9.476;2024-02-21T04:32:30;5.20;99.90
42479;DHT22;28110;47.080;9.476;2024-02-21T04:34:56;5.20;99.90
42479;DHT22;28110;47.080;9.476;2024-02-21T04:37:21;5.20;99.90
42479;DHT22;28110;47.080;9.476;2024-02-21T04:39:48;5.20;99.90
42479;DHT22;28110;47.080;9.476;2024-02-21T04:42:14;5.20;99.90
42479;DHT22;28110;47.080;9.476;2024-02-21T04:44:40;5.20;99.90
42479;DHT22;28110;47.080;9.476;2024-02-21T04:47:05;5.20;99.90
42479;DHT22;28110;47.080;9.476;2024-02-21T04:49:31;5.20;99.90
42479;DHT22;28110;47.080;9.476;2024-02-21T04:51:57;5.20;99.90
42479;DHT22;28110;47.080;9.476;2024-02-21T04:54:22;5.20;99.90
42479;DHT22;28110;47.080;9.476;2024-02-21T04:56:48;5.20;99.90
42479;DHT22;28110;47.080;9.476;2024-02-21T04:59:13;5.20;99.90
42479;DHT22;28110;47.080;9.476;2024-02-21T05:01:39;5.20;99.90
42479;DHT22;28110;47.080;9.476;2024-02-21T05:04:05;5.20;99.90
42479;DHT22;28110;47.080;9.476;2024-02-21T05:06:30;5.30;99.90
42479;DHT22;28110;47.080;9.476;2024-02-21T05:08:56;5.20;99.90
42479;DHT22;28110;47.080;9.476;2024-02-21T05:11:23;5.20;99.90
42479;DHT22;28110;47.080;9.476;2024-02-21T05:13:48;5.20;99.90
42479;DHT22;28110;47.080;9.476;2024-02-21T05:16:14;5.20;99.90
42479;DHT22;28110;47.080;9.476;2024-02-21T05:18:40;5.20;99.90
42479;DHT22;28110;47.080;9.476;2024-02-21T05:21:06;5.20;99.90
42479;DHT22;28110;47.080;9.476;2024-02-21T05:23:31;5.30;99.90
42479;DHT22;28110;47.080;9.476;2024-02-21T05:25:57;5.30;99.90
42479;DHT22;28110;47.080;9.476;2024-02-21T05:28:22;5.30;99.90
42479;DHT22;28110;47.080;9.476;2024-02-21T05:30:48;5.30;99.90
42479;DHT22;28110;47.080;9.476;2024-02-21T05:33:13;5.40;99.90
42479;DHT22;28110;47.080;9.476;2024-02-21T05:35:48;5.40;99.90
42479;DHT22;28110;47.080;9.476;2024-02-21T05:38:14;5.40;99.90
42479;DHT22;28110;47.080;9.476;2024-02-21T05:40:40;5.40;99.90
42479;DHT22;28110;47.080;9.476;2024-02-21T05:43:07;5.40;99.90
42479;DHT22;28110;47.080;9.476;2024-02-21T05:45:33;5.50;99.90
42479;DHT22;28110;47.080;9.476;2024-02-21T05:47:58;5.60;99.90
42479;DHT22;28110;47.080;9.476;2024-02-21T05:50:24;5.50;99.90
42479;DHT22;28110;47.080;9.476;2024-02-21T05:52:54;5.60;99.90
42479;DHT22;28110;47.080;9.476;2024-02-21T05:55:21;5.60;99.90
42479;DHT22;28110;47.080;9.476;2024-02-21T05:57:46;5.60;99.90
42479;DHT22;28110;47.080;9.476;2024-02-21T06:00:13;5.60;99.90
42479;DHT22;28110;47.080;9.476;2024-02-21T06:02:38;5.50;99.90
42479;DHT22;28110;47.080;9.476;2024-02-21T06:05:05;5.50;99.90
42479;DHT22;28110;47.080;9.476;2024-02-21T06:07:33;5.40;99.90
42479;DHT22;28110;47.080;9.476;2024-02-21T06:09:59;5.40;99.90
42479;DHT22;28110;47.080;9.476;2024-02-21T06:12:24;5.40;99.90
42479;DHT22;28110;47.080;9.476;2024-02-21T06:14:50;5.40;99.90
42479;DHT22;28110;47.080;9.476;2024-02-21T06:17:16;5.40;99.90
42479;DHT22;28110;47.080;9.476;2024-02-21T06:19:43;5.40;99.90
42479;DHT22;28110;47.080;9.476;2024-02-21T06:22:08;5.40;99.90
42479;DHT22;28110;47.080;9.476;2024-02-21T06:24:35;5.40;99.90
42479;DHT22;28110;47.080;9.476;2024-02-21T06:27:02;5.50;99.90
42479;DHT22;28110;47.080;9.476;2024-02-21T06:29:27;5.60;99.90
42479;DHT22;28110;47.080;9.476;2024-02-21T06:31:53;5.70;99.90
42479;DHT22;28110;47.080;9.476;2024-02-21T06:34:18;5.80;99.90
42479;DHT22;28110;47.080;9.476;2024-02-21T06:36:45;5.80;99.90
42479;DHT22;28110;47.080;9.476;2024-02-21T06:39:10;5.90;99.90
42479;DHT22;28110;47.080;9.476;2024-02-21T06:41:37;5.90;99.90
42479;DHT22;28110;47.080;9.476;2024-02-21T06:44:03;5.90;99.90
42479;DHT22;28110;47.080;9.476;2024-02-21T06:46:29;5.80;99.90
42479;DHT22;28110;47.080;9.476;2024-02-21T06:48:55;5.80;99.90
42479;DHT22;28110;47.080;9.476;2024-02-21T06:51:25;5.80;99.90
42479;DHT22;28110;47.080;9.476;2024-02-21T06:53:51;5.80;99.90
42479;DHT22;28110;47.080;9.476;2024-02-21T06:56:17;5.80;99.90
42479;DHT22;28110;47.080;9.476;2024-02-21T06:58:42;5.90;99.90
42479;DHT22;28110;47.080;9.476;2024-02-21T07:01:08;5.90;99.90
42479;DHT22;28110;47.080;9.476;2024-02-21T07:03:34;5.90;99.90
42479;DHT22;28110;47.080;9.476;2024-02-21T07:06:00;5.90;99.90
42479;DHT22;28110;47.080;9.476;2024-02-21T07:08:25;6.00;99.90
42479;DHT22;28110;47.080;9.476;2024-02-21T07:10:51;6.00;99.90
42479;DHT22;28110;47.080;9.476;2024-02-21T07:13:17;5.90;99.90
42479;DHT22;28110;47.080;9.476;2024-02-21T07:15:43;6.00;99.90
42479;DHT22;28110;47.080;9.476;2024-02-21T07:18:09;5.90;99.90
42479;DHT22;28110;47.080;9.476;2024-02-21T07:20:34;5.90;99.90
42479;DHT22;28110;47.080;9.476;2024-02-21T07:23:02;6.00;99.90
42479;DHT22;28110;47.080;9.476;2024-02-21T07:25:27;6.00;99.90
42479;DHT22;28110;47.080;9.476;2024-02-21T07:27:53;5.90;99.90
42479;DHT22;28110;47.080;9.476;2024-02-21T07:30:19;6.00;99.90
42479;DHT22;28110;47.080;9.476;2024-02-21T07:32:44;5.90;99.90
42479;DHT22;28110;47.080;9.476;2024-02-21T07:35:10;5.90;99.90
42479;DHT22;28110;47.080;9.476;2024-02-21T07:37:37;6.00;99.90
42479;DHT22;28110;47.080;9.476;2024-02-21T07:40:05;6.00;99.90
42479;DHT22;28110;47.080;9.476;2024-02-21T07:42:31;6.00;99.90
42479;DHT22;28110;47.080;9.476;2024-02-21T07:44:57;6.00;99.90
42479;DHT22;28110;47.080;9.476;2024-02-21T07:47:22;6.10;99.90
42479;DHT22;28110;47.080;9.476;2024-02-21T07:49:48;6.20;99.90
42479;DHT22;28110;47.080;9.476;2024-02-21T07:52:14;6.20;99.90
42479;DHT22;28110;47.080;9.476;2024-02-21T07:54:41;6.30;99.90
42479;DHT22;28110;47.080;9.476;2024-02-21T07:57:07;6.30;99.90
42479;DHT22;28110;47.080;9.476;2024-02-21T07:59:33;6.30;99.90
42479;DHT22;28110;47.080;9.476;2024-02-21T08:01:58;6.40;99.90
42479;DHT22;28110;47.080;9.476;2024-02-21T08:04:24;6.40;99.90
42479;DHT22;28110;47.080;9.476;2024-02-21T08:06:53;6.40;99.90
42479;DHT22;28110;47.080;9.476;2024-02-21T08:09:19;6.40;99.90
42479;DHT22;28110;47.080;9.476;2024-02-21T08:11:44;6.40;99.90
42479;DHT22;28110;47.080;9.476;2024-02-21T08:14:10;6.30;99.90
42479;DHT22;28110;47.080;9.476;2024-02-21T08:16:35;6.40;99.90
42479;DHT22;28110;47.080;9.476;2024-02-21T08:19:01;6.40;99.90
42479;DHT22;28110;47.080;9.476;2024-02-21T08:21:29;6.60;99.90
42479;DHT22;28110;47.080;9.476;2024-02-21T08:23:55;6.70;99.90
42479;DHT22;28110;47.080;9.476;2024-02-21T08:26:20;6.80;99.90
42479;DHT22;28110;47.080;9.476;2024-02-21T08:28:46;6.90;99.90
42479;DHT22;28110;47.080;9.476;2024-02-21T08:31:18;7.00;99.90
42479;DHT22;28110;47.080;9.476;2024-02-21T08:33:44;7.10;99.90
42479;DHT22;28110;47.080;9.476;2024-02-21T08:36:16;7.10;99.90
42479;DHT22;28110;47.080;9.476;2024-02-21T08:38:42;7.10;99.90
42479;DHT22;28110;47.080;9.476;2024-02-21T08:41:07;7.20;99.90
42479;DHT22;28110;47.080;9.476;2024-02-21T08:43:33;7.30;99.90
42479;DHT22;28110;47.080;9.476;2024-02-21T08:46:00;7.30;99.90
42479;DHT22;28110;47.080;9.476;2024-02-21T08:48:25;7.40;99.90
42479;DHT22;28110;47.080;9.476;2024-02-21T08:50:51;7.60;99.90
42479;DHT22;28110;47.080;9.476;2024-02-21T08:53:16;7.70;99.90
42479;DHT22;28110;47.080;9.476;2024-02-21T08:55:42;7.80;99.90
42479;DHT22;28110;47.080;9.476;2024-02-21T08:58:09;7.80;99.90
42479;DHT22;28110;47.080;9.476;2024-02-21T09:00:35;7.90;99.90
42479;DHT22;28110;47.080;9.476;2024-02-21T09:03:00;8.00;99.90
42479;DHT22;28110;47.080;9.476;2024-02-21T09:05:26;8.00;99.90
42479;DHT22;28110;47.080;9.476;2024-02-21T09:07:52;8.00;99.90
42479;DHT22;28110;47.080;9.476;2024-02-21T09:10:17;8.10;99.90
42479;DHT22;28110;47.080;9.476;2024-02-21T09:12:43;8.20;99.90
42479;DHT22;28110;47.080;9.476;2024-02-21T09:15:09;8.20;99.90
42479;DHT22;28110;47.080;9.476;2024-02-21T09:17:35;8.30;99.90
42479;DHT22;28110;47.080;9.476;2024-02-21T09:20:01;8.40;99.90
42479;DHT22;28110;47.080;9.476;2024-02-21T09:22:28;8.40;99.90
42479;DHT22;28110;47.080;9.476;2024-02-21T09:24:54;8.50;99.90
42479;DHT22;28110;47.080;9.476;2024-02-21T09:27:19;8.50;99.90
42479;DHT22;28110;47.080;9.476;2024-02-21T09:29:45;8.60;99.90
42479;DHT22;28110;47.080;9.476;2024-02-21T09:32:10;8.70;99.90
42479;DHT22;28110;47.080;9.476;2024-02-21T09:34:36;8.70;99.90
42479;DHT22;28110;47.080;9.476;2024-02-21T09:37:02;8.70;99.90
42479;DHT22;28110;47.080;9.476;2024-02-21T09:39:27;8.80;99.70
42479;DHT22;28110;47.080;9.476;2024-02-21T09:41:59;8.80;99.90
42479;DHT22;28110;47.080;9.476;2024-02-21T09:44:24;8.80;99.90
42479;DHT22;28110;47.080;9.476;2024-02-21T09:47:02;8.80;99.90
42479;DHT22;28110;47.080;9.476;2024-02-21T09:49:34;8.90;99.90
42479;DHT22;28110;47.080;9.476;2024-02-21T09:52:04;8.90;99.90
42479;DHT22;28110;47.080;9.476;2024-02-21T09:54:32;9.00;99.90
42479;DHT22;28110;47.080;9.476;2024-02-21T09:57:00;9.00;99.90
42479;DHT22;28110;47.080;9.476;2024-02-21T09:59:27;9.10;99.90
42479;DHT22;28110;47.080;9.476;2024-02-21T10:01:53;9.10;99.90
42479;DHT22;28110;47.080;9.476;2024-02-21T10:04:20;9.10;99.90
42479;DHT22;28110;47.080;9.476;2024-02-21T10:06:46;9.20;99.90
42479;DHT22;28110;47.080;9.476;2024-02-21T10:09:24;9.20;99.90
42479;DHT22;28110;47.080;9.476;2024-02-21T10:11:53;9.30;99.70
42479;DHT22;28110;47.080;9.476;2024-02-21T10:14:19;9.40;99.90
42479;DHT22;28110;47.080;9.476;2024-02-21T10:16:48;9.40;99.70
42479;DHT22;28110;47.080;9.476;2024-02-21T10:19:20;9.50;99.60
42479;DHT22;28110;47.080;9.476;2024-02-21T10:24:28;9.60;98.30
42479;DHT22;28110;47.080;9.476;2024-02-21T10:27:01;9.70;98.00
42479;DHT22;28110;47.080;9.476;2024-02-21T10:29:29;9.80;97.20
42479;DHT22;28110;47.080;9.476;2024-02-21T10:32:11;9.90;97.30
42479;DHT22;28110;47.080;9.476;2024-02-21T10:34:38;9.90;97.00
42479;DHT22;28110;47.080;9.476;2024-02-21T10:37:05;10.00;96.30
42479;DHT22;28110;47.080;9.476;2024-02-21T10:39:32;10.20;96.70
42479;DHT22;28110;47.080;9.476;2024-02-21T10:42:00;10.20;96.80
42479;DHT22;28110;47.080;9.476;2024-02-21T10:44:30;10.30;96.10
42479;DHT22;28110;47.080;9.476;2024-02-21T10:46:56;10.40;96.00
42479;DHT22;28110;47.080;9.476;2024-02-21T10:49:29;10.50;96.40
42479;DHT22;28110;47.080;9.476;2024-02-21T10:55:38;10.70;94.50
42479;DHT22;28110;47.080;9.476;2024-02-21T10:57:45;10.80;94.70
42479;DHT22;28110;47.080;9.476;2024-02-21T11:00:12;10.80;93.60
42479;DHT22;28110;47.080;9.476;2024-02-21T11:02:40;11.00;92.60
42479;DHT22;28110;47.080;9.476;2024-02-21T11:05:06;11.00;92.80
42479;DHT22;28110;47.080;9.476;2024-02-21T11:07:35;11.20;93.70
42479;DHT22;28110;47.080;9.476;2024-02-21T11:10:01;11.30;93.30
42479;DHT22;28110;47.080;9.476;2024-02-21T11:12:26;11.30;93.50
42479;DHT22;28110;47.080;9.476;2024-02-21T11:15:03;11.30;92.90
42479;DHT22;28110;47.080;9.476;2024-02-21T11:17:29;11.40;93.50
42479;DHT22;28110;47.080;9.476;2024-02-21T11:19:55;11.40;93.20
42479;DHT22;28110;47.080;9.476;2024-02-21T11:22:21;11.50;93.20
42479;DHT22;28110;47.080;9.476;2024-02-21T11:24:48;11.50;91.80
42479;DHT22;28110;47.080;9.476;2024-02-21T11:27:19;11.50;91.50
42479;DHT22;28110;47.080;9.476;2024-02-21T11:29:47;11.60;91.90
42479;DHT22;28110;47.080;9.476;2024-02-21T11:32:19;11.60;90.90
42479;DHT22;28110;47.080;9.476;2024-02-21T11:35:02;11.60;92.20
42479;DHT22;28110;47.080;9.476;2024-02-21T11:37:33;11.70;91.40
42479;DHT22;28110;47.080;9.476;2024-02-21T11:40:00;11.70;91.90
42479;DHT22;28110;47.080;9.476;2024-02-21T11:42:26;11.80;92.10
42479;DHT22;28110;47.080;9.476;2024-02-21T11:44:53;11.80;92.70
42479;DHT22;28110;47.080;9.476;2024-02-21T11:47:19;11.90;92.00
42479;DHT22;28110;47.080;9.476;2024-02-21T11:49:48;12.00;90.80
42479;DHT22;28110;47.080;9.476;2024-02-21T11:52:15;12.00;90.90
42479;DHT22;28110;47.080;9.476;2024-02-21T11:54:44;12.10;90.40
42479;DHT22;28110;47.080;9.476;2024-02-21T11:57:10;12.10;90.70
42479;DHT22;28110;47.080;9.476;2024-02-21T11:59:36;12.20;90.60
42479;DHT22;28110;47.080;9.476;2024-02-21T12:02:02;12.20;90.30
42479;DHT22;28110;47.080;9.476;2024-02-21T12:04:29;12.30;87.20
42479;DHT22;28110;47.080;9.476;2024-02-21T12:06:57;12.40;87.30
42479;DHT22;28110;47.080;9.476;2024-02-21T12:09:24;12.40;85.80
42479;DHT22;28110;47.080;9.476;2024-02-21T12:12:00;12.50;83.80
42479;DHT22;28110;47.080;9.476;2024-02-21T12:14:27;12.60;82.80
42479;DHT22;28110;47.080;9.476;2024-02-21T12:16:53;12.60;83.20
42479;DHT22;28110;47.080;9.476;2024-02-21T12:19:20;12.60;83.80
42479;DHT22;28110;47.080;9.476;2024-02-21T12:21:47;12.70;81.40
42479;DHT22;28110;47.080;9.476;2024-02-21T12:24:14;12.70;82.30
42479;DHT22;28110;47.080;9.476;2024-02-21T12:26:40;12.80;82.10
42479;DHT22;28110;47.080;9.476;2024-02-21T12:29:06;12.80;80.80
42479;DHT22;28110;47.080;9.476;2024-02-21T12:31:37;12.80;80.90
42479;DHT22;28110;47.080;9.476;2024-02-21T12:34:03;12.90;83.00
42479;DHT22;28110;47.080;9.476;2024-02-21T12:36:30;13.00;80.90
42479;DHT22;28110;47.080;9.476;2024-02-21T12:38:56;13.00;79.90
42479;DHT22;28110;47.080;9.476;2024-02-21T12:41:21;13.00;78.50
42479;DHT22;28110;47.080;9.476;2024-02-21T12:43:47;13.10;78.80
42479;DHT22;28110;47.080;9.476;2024-02-21T12:46:13;13.20;78.10
42479;DHT22;28110;47.080;9.476;2024-02-21T12:48:38;13.20;78.10
42479;DHT22;28110;47.080;9.476;2024-02-21T12:51:05;13.20;79.80
42479;DHT22;28110;47.080;9.476;2024-02-21T12:53:30;13.20;79.70
42479;DHT22;28110;47.080;9.476;2024-02-21T12:55:56;13.30;80.70
42479;DHT22;28110;47.080;9.476;2024-02-21T12:58:22;13.30;79.30
42479;DHT22;28110;47.080;9.476;2024-02-21T13:00:47;13.30;80.60
42479;DHT22;28110;47.080;9.476;2024-02-21T13:03:14;13.30;78.90
42479;DHT22;28110;47.080;9.476;2024-02-21T13:05:39;13.40;79.70
42479;DHT22;28110;47.080;9.476;2024-02-21T13:08:09;13.40;80.70
42479;DHT22;28110;47.080;9.476;2024-02-21T13:10:34;13.40;80.30
42479;DHT22;28110;47.080;9.476;2024-02-21T13:13:01;13.40;78.90
42479;DHT22;28110;47.080;9.476;2024-02-21T13:15:26;13.50;80.00
42479;DHT22;28110;47.080;9.476;2024-02-21T13:17:53;13.50;78.40
42479;DHT22;28110;47.080;9.476;2024-02-21T13:20:20;13.50;80.20
42479;DHT22;28110;47.080;9.476;2024-02-21T13:22:46;13.50;78.70
42479;DHT22;28110;47.080;9.476;2024-02-21T13:25:12;13.60;78.70
42479;DHT22;28110;47.080;9.476;2024-02-21T13:27:40;13.60;77.90
42479;DHT22;28110;47.080;9.476;2024-02-21T13:30:06;13.60;77.60
42479;DHT22;28110;47.080;9.476;2024-02-21T13:32:34;13.70;79.10
42479;DHT22;28110;47.080;9.476;2024-02-21T13:34:59;13.70;78.10
42479;DHT22;28110;47.080;9.476;2024-02-21T13:37:26;13.80;78.80
42479;DHT22;28110;47.080;9.476;2024-02-21T13:39:52;13.80;83.00
42479;DHT22;28110;47.080;9.476;2024-02-21T13:42:18;13.80;80.20
42479;DHT22;28110;47.080;9.476;2024-02-21T13:44:44;13.90;79.60
42479;DHT22;28110;47.080;9.476;2024-02-21T13:47:11;13.90;79.60
42479;DHT22;28110;47.080;9.476;2024-02-21T13:49:38;13.80;79.00
42479;DHT22;28110;47.080;9.476;2024-02-21T13:52:04;13.80;78.40
42479;DHT22;28110;47.080;9.476;2024-02-21T13:54:30;13.80;78.00
42479;DHT22;28110;47.080;9.476;2024-02-21T13:56:56;13.80;78.60
42479;DHT22;28110;47.080;9.476;2024-02-21T13:59:21;13.80;78.70
42479;DHT22;28110;47.080;9.476;2024-02-21T14:01:47;13.80;78.00
42479;DHT22;28110;47.080;9.476;2024-02-21T14:04:12;13.80;78.90
42479;DHT22;28110;47.080;9.476;2024-02-21T14:06:38;13.90;79.40
42479;DHT22;28110;47.080;9.476;2024-02-21T14:09:09;13.80;78.60
42479;DHT22;28110;47.080;9.476;2024-02-21T14:11:34;13.90;79.30
42479;DHT22;28110;47.080;9.476;2024-02-21T14:14:00;13.90;81.20
42479;DHT22;28110;47.080;9.476;2024-02-21T14:16:26;14.00;80.70
42479;DHT22;28110;47.080;9.476;2024-02-21T14:18:51;14.00;80.00
42479;DHT22;28110;47.080;9.476;2024-02-21T14:21:17;14.00;78.10
42479;DHT22;28110;47.080;9.476;2024-02-21T14:23:43;14.00;79.10
42479;DHT22;28110;47.080;9.476;2024-02-21T14:26:08;14.00;82.60
42479;DHT22;28110;47.080;9.476;2024-02-21T14:28:34;14.00;84.00
42479;DHT22;28110;47.080;9.476;2024-02-21T14:31:00;14.00;83.60
42479;DHT22;28110;47.080;9.476;2024-02-21T14:33:29;13.90;88.20
42479;DHT22;28110;47.080;9.476;2024-02-21T14:35:56;13.90;90.00
42479;DHT22;28110;47.080;9.476;2024-02-21T14:38:22;13.80;90.20
42479;DHT22;28110;47.080;9.476;2024-02-21T14:40:47;13.80;90.40
42479;DHT22;28110;47.080;9.476;2024-02-21T14:43:13;13.80;87.20
42479;DHT22;28110;47.080;9.476;2024-02-21T14:45:39;13.80;87.70
42479;DHT22;28110;47.080;9.476;2024-02-21T14:48:05;13.80;88.30
42479;DHT22;28110;47.080;9.476;2024-02-21T14:50:31;13.80;85.10
42479;DHT22;28110;47.080;9.476;2024-02-21T14:52:57;13.80;89.90
42479;DHT22;28110;47.080;9.476;2024-02-21T14:55:22;13.80;90.80
42479;DHT22;28110;47.080;9.476;2024-02-21T14:57:49;13.70;91.20
42479;DHT22;28110;47.080;9.476;2024-02-21T15:00:15;13.70;91.40
42479;DHT22;28110;47.080;9.476;2024-02-21T15:02:40;13.60;91.70
42479;DHT22;28110;47.080;9.476;2024-02-21T15:05:06;13.60;91.80
42479;DHT22;28110;47.080;9.476;2024-02-21T15:07:33;13.50;91.60
42479;DHT22;28110;47.080;9.476;2024-02-21T15:09:58;13.50;92.00
42479;DHT22;28110;47.080;9.476;2024-02-21T15:12:24;13.40;92.90
42479;DHT22;28110;47.080;9.476;2024-02-21T15:14:50;13.40;93.10
42479;DHT22;28110;47.080;9.476;2024-02-21T15:17:16;13.40;93.00
42479;DHT22;28110;47.080;9.476;2024-02-21T15:19:43;13.30;92.80
42479;DHT22;28110;47.080;9.476;2024-02-21T15:22:10;13.30;92.90
42479;DHT22;28110;47.080;9.476;2024-02-21T15:24:37;13.30;92.90
42479;DHT22;28110;47.080;9.476;2024-02-21T15:27:03;13.30;92.80
42479;DHT22;28110;47.080;9.476;2024-02-21T15:29:29;13.20;92.80
42479;DHT22;28110;47.080;9.476;2024-02-21T15:31:55;13.20;92.70
42479;DHT22;28110;47.080;9.476;2024-02-21T15:34:21;13.20;92.80
42479;DHT22;28110;47.080;9.476;2024-02-21T15:36:47;13.20;93.40
42479;DHT22;28110;47.080;9.476;2024-02-21T15:39:12;13.10;93.60
42479;DHT22;28110;47.080;9.476;2024-02-21T15:41:38;13.10;93.70